Time;durP1;ratioP1;P1;durP2;ratioP2;P2;SDS_P1;SDS_P2;PMS_P1;PMS_P2;Temp;Humidity;BMP_temperature;BMP_pressure;BME280_temperature;BME280_humidity;BME280_pressure;Samples;Min_cycle;Max_cycle;Signal;HPM_P1;HPM_P2
2023/06/12 00:02:13;;;;;;;8.95;4.18;;;;;;;;;;10552827;28;20071;-75
2023/06/12 00:07:16;;;;;;;10.27;3.90;;;;;;;;;;10551388;28;20036;-76
2023/06/12 00:12:19;;;;;;;6.72;3.83;;;;;;;;;;10549820;28;20135;-75
2023/06/12 00:17:23;;;;;;;6.50;3.73;;;;;;;;;;10553721;28;20115;-74
2023/06/12 00:22:26;;;;;;;6.68;4.22;;;;;;;;;;10553550;28;20308;-75
2023/06/12 00:27:31;;;;;;;9.60;4.35;;;;;;;;;;10553002;28;20040;-74
2023/06/12 00:32:36;;;;;;;8.85;4.40;;;;;;;;;;10552872;28;20151;-73
2023/06/12 00:37:41;;;;;;;9.93;4.45;;;;;;;;;;10548493;28;20139;-76
2023/06/12 00:42:46;;;;;;;9.13;4.13;;;;;;;;;;10547826;28;20170;-75
2023/06/12 00:47:52;;;;;;;7.90;4.32;;;;;;;;;;10551948;28;20064;-74
2023/06/12 00:52:55;;;;;;;8.52;4.20;;;;;;;;;;10531990;28;20047;-74
2023/06/12 00:57:58;;;;;;;;;;;;;;;;;;10533321;28;20078;-74
2023/06/12 01:03:06;;;;;;;7.57;3.90;;;;;;;;;;10549666;28;19920;-75
2023/06/12 01:08:19;;;;;;;9.55;4.80;;;;;;;;;;10547636;28;20490;-75
2023/06/12 01:13:23;;;;;;;10.13;4.43;;;;;;;;;;10550743;28;20046;-76
2023/06/12 01:18:29;;;;;;;11.60;4.83;;;;;;;;;;10550879;28;20385;-77
2023/06/12 01:23:48;;;;;;;11.27;4.75;;;;;;;;;;10550159;28;20036;-77
2023/06/12 01:29:12;;;;;;;8.90;4.55;;;;;;;;;;10549950;28;20162;-75
2023/06/12 01:34:20;;;;;;;7.65;4.78;;;;;;;;;;10494826;28;20120;-77
2023/06/12 01:39:24;;;;;;;7.18;4.68;;;;;;;;;;10552496;28;20107;-75
2023/06/12 01:44:26;;;;;;;9.90;5.22;;;;;;;;;;10551973;28;20095;-75
2023/06/12 01:49:30;;;;;;;7.97;4.87;;;;;;;;;;10550210;28;20127;-76
2023/06/12 01:54:33;;;;;;;9.68;4.80;;;;;;;;;;10555059;28;20147;-74
2023/06/12 01:59:36;;;;;;;8.68;4.45;;;;;;;;;;10549841;28;20136;-75
2023/06/12 02:04:41;;;;;;;7.33;4.57;;;;;;;;;;10550812;28;20058;-75
2023/06/12 02:09:43;;;;;;;10.38;5.00;;;;;;;;;;10548793;28;20321;-74
2023/06/12 02:14:47;;;;;;;9.45;5.07;;;;;;;;;;10555966;28;20033;-75
2023/06/12 02:19:51;;;;;;;7.78;4.63;;;;;;;;;;10555830;28;20108;-75
2023/06/12 02:24:53;;;;;;;9.95;4.97;;;;;;;;;;10558360;28;20052;-74
2023/06/12 02:29:56;;;;;;;7.72;4.70;;;;;;;;;;10555551;28;20067;-75
2023/06/12 02:35:00;;;;;;;9.77;5.00;;;;;;;;;;10553946;28;20043;-75
2023/06/12 02:40:03;;;;;;;10.02;5.15;;;;;;;;;;10557144;28;20068;-74
2023/06/12 02:45:07;;;;;;;8.27;4.88;;;;;;;;;;10557044;28;20032;-75
2023/06/12 02:50:11;;;;;;;11.10;4.90;;;;;;;;;;10554270;28;20441;-74
2023/06/12 02:55:14;;;;;;;9.60;5.18;;;;;;;;;;10550149;28;20996;-75
2023/06/12 03:00:16;;;;;;;10.23;5.20;;;;;;;;;;10555883;28;20036;-77
2023/06/12 03:05:20;;;;;;;10.05;4.90;;;;;;;;;;10551416;28;20049;-74
2023/06/12 03:10:23;;;;;;;9.20;4.63;;;;;;;;;;10563682;28;20064;-73
2023/06/12 03:15:26;;;;;;;9.02;5.07;;;;;;;;;;10560684;28;20116;-74
2023/06/12 03:20:32;;;;;;;9.90;4.90;;;;;;;;;;10556765;28;20145;-73
2023/06/12 03:25:35;;;;;;;8.43;4.97;;;;;;;;;;10559400;28;20150;-78
2023/06/12 03:30:38;;;;;;;8.88;5.13;;;;;;;;;;10553897;28;20044;-76
2023/06/12 03:35:42;;;;;;;10.13;5.28;;;;;;;;;;10540248;28;20227;-74
2023/06/12 03:40:44;;;;;;;9.30;5.50;;;;;;;;;;10550245;28;20354;-73
2023/06/12 03:45:47;;;;;;;8.73;4.95;;;;;;;;;;10560517;28;20036;-75
2023/06/12 03:50:51;;;;;;;13.33;5.70;;;;;;;;;;10551177;28;20060;-74
2023/06/12 03:55:55;;;;;;;11.00;5.82;;;;;;;;;;10558845;28;20039;-74
2023/06/12 04:00:58;;;;;;;8.97;5.07;;;;;;;;;;10555056;28;20119;-74
2023/06/12 04:06:02;;;;;;;10.80;5.80;;;;;;;;;;10555570;28;20032;-74
2023/06/12 04:11:08;;;;;;;9.57;5.28;;;;;;;;;;10551416;28;20044;-75
2023/06/12 04:16:11;;;;;;;10.80;5.97;;;;;;;;;;10554397;28;20033;-75
2023/06/12 04:21:16;;;;;;;11.73;5.47;;;;;;;;;;10551966;28;20051;-76
2023/06/12 04:26:20;;;;;;;11.98;5.25;;;;;;;;;;10552937;28;20051;-75
2023/06/12 04:31:26;;;;;;;12.55;5.28;;;;;;;;;;10561312;28;20036;-77
2023/06/12 04:36:33;;;;;;;10.02;5.50;;;;;;;;;;10549343;28;20036;-76
2023/06/12 04:41:39;;;;;;;11.43;5.78;;;;;;;;;;10554139;28;20040;-76
2023/06/12 04:46:42;;;;;;;11.90;6.18;;;;;;;;;;10550848;28;20044;-76
2023/06/12 04:51:48;;;;;;;9.90;5.88;;;;;;;;;;10551260;28;20044;-75
2023/06/12 04:56:52;;;;;;;11.90;5.78;;;;;;;;;;10546828;28;20122;-74
2023/06/12 05:01:56;;;;;;;10.20;5.90;;;;;;;;;;10549848;28;20048;-74
2023/06/12 05:06:59;;;;;;;;;;;;;;;;;;10554806;28;21468;-74
2023/06/12 05:12:05;;;;;;;11.33;5.70;;;;;;;;;;10552302;28;19930;-74
2023/06/12 05:17:09;;;;;;;8.40;4.10;;;;;;;;;;10549094;28;20512;-75
2023/06/12 05:22:12;;;;;;;13.00;6.05;;;;;;;;;;10554085;28;20107;-74
2023/06/12 05:27:16;;;;;;;15.43;6.40;;;;;;;;;;10554801;28;20055;-76
2023/06/12 05:32:19;;;;;;;14.65;6.47;;;;;;;;;;10552342;28;20104;-74
2023/06/12 05:37:22;;;;;;;10.97;5.97;;;;;;;;;;10549311;28;20082;-75
2023/06/12 05:42:26;;;;;;;12.27;6.05;;;;;;;;;;10545866;28;20488;-76
2023/06/12 05:47:29;;;;;;;10.15;5.50;;;;;;;;;;10546982;28;20063;-73
2023/06/12 05:52:31;;;;;;;13.03;6.17;;;;;;;;;;10546360;28;20040;-75
2023/06/12 05:57:36;;;;;;;6.30;3.57;;;;;;;;;;10548538;28;20044;-75
2023/06/12 06:02:39;;;;;;;8.93;5.07;;;;;;;;;;10546717;28;20099;-77
2023/06/12 06:07:42;;;;;;;13.82;6.70;;;;;;;;;;10555223;28;20044;-76
2023/06/12 06:12:46;;;;;;;13.45;6.35;;;;;;;;;;10550192;28;20070;-76
2023/06/12 06:17:49;;;;;;;12.23;5.80;;;;;;;;;;10549303;28;20602;-75
2023/06/12 06:22:52;;;;;;;9.40;5.90;;;;;;;;;;10546212;28;20052;-76
2023/06/12 06:27:57;;;;;;;11.93;6.10;;;;;;;;;;10546908;28;20386;-77
2023/06/12 06:33:00;;;;;;;11.73;5.95;;;;;;;;;;10552265;28;20070;-75
2023/06/12 06:38:02;;;;;;;12.52;5.13;;;;;;;;;;10537555;28;20040;-77
2023/06/12 06:43:06;;;;;;;8.33;4.70;;;;;;;;;;10545720;28;20062;-75
2023/06/12 06:48:13;;;;;;;9.80;5.57;;;;;;;;;;10544480;28;20077;-76
2023/06/12 06:53:15;;;;;;;10.73;5.15;;;;;;;;;;10543073;28;20055;-75
2023/06/12 06:58:19;;;;;;;9.77;5.90;;;;;;;;;;10534441;28;20111;-75
2023/06/12 07:03:22;;;;;;;9.75;5.15;;;;;;;;;;10535621;28;20109;-76
2023/06/12 07:08:25;;;;;;;10.50;5.70;;;;;;;;;;10540936;28;20040;-75
2023/06/12 07:13:29;;;;;;;9.70;5.33;;;;;;;;;;10546429;28;20047;-75
2023/06/12 07:18:31;;;;;;;8.95;4.65;;;;;;;;;;10543424;28;20123;-74
2023/06/12 07:23:34;;;;;;;12.17;5.57;;;;;;;;;;10543961;28;20070;-75
2023/06/12 07:28:38;;;;;;;8.75;4.88;;;;;;;;;;10544547;28;20044;-75
2023/06/12 07:33:41;;;;;;;10.57;5.90;;;;;;;;;;10542313;28;20150;-77
2023/06/12 07:38:44;;;;;;;;;;;;;;;;;;10540211;28;20064;-75
2023/06/12 07:43:48;;;;;;;8.57;4.60;;;;;;;;;;10541348;28;21484;-76
2023/06/12 07:48:50;;;;;;;8.55;4.47;;;;;;;;;;10530895;28;20071;-76
2023/06/12 07:53:53;;;;;;;8.68;5.05;;;;;;;;;;10537622;28;20520;-76
2023/06/12 07:59:00;;;;;;;7.47;4.93;;;;;;;;;;10535472;28;20051;-75
2023/06/12 08:04:03;;;;;;;6.68;4.60;;;;;;;;;;10544194;28;20107;-76
2023/06/12 08:09:08;;;;;;;8.00;4.95;;;;;;;;;;10536326;28;20139;-75
2023/06/12 08:14:13;;;;;;;8.85;4.93;;;;;;;;;;10521607;28;20048;-76
2023/06/12 08:19:16;;;;;;;7.65;5.00;;;;;;;;;;10539842;28;20104;-77
2023/06/12 08:24:18;;;;;;;7.25;5.10;;;;;;;;;;10539610;28;20649;-76
2023/06/12 08:29:22;;;;;;;7.78;5.20;;;;;;;;;;10543620;28;20056;-77
2023/06/12 08:34:26;;;;;;;8.52;4.68;;;;;;;;;;10539545;28;20059;-75
2023/06/12 08:39:28;;;;;;;7.10;5.03;;;;;;;;;;10539744;28;20040;-76
2023/06/12 08:44:34;;;;;;;6.95;4.50;;;;;;;;;;10541379;28;20048;-77
2023/06/12 08:49:37;;;;;;;5.38;4.38;;;;;;;;;;10539366;28;20048;-77
2023/06/12 08:54:40;;;;;;;9.27;4.78;;;;;;;;;;10537353;28;20618;-77
2023/06/12 08:59:44;;;;;;;5.97;4.45;;;;;;;;;;10541372;28;20565;-77
2023/06/12 09:04:52;;;;;;;6.78;4.60;;;;;;;;;;10542689;28;20145;-77
2023/06/12 09:09:55;;;;;;;7.95;4.53;;;;;;;;;;10540763;28;20044;-76
2023/06/12 09:15:19;;;;;;;6.50;4.57;;;;;;;;;;10542208;28;20044;-77
2023/06/12 09:20:23;;;;;;;5.70;4.32;;;;;;;;;;10546577;28;20039;-76
2023/06/12 09:25:43;;;;;;;5.72;3.90;;;;;;;;;;10546423;28;20139;-76
2023/06/12 09:31:08;;;;;;;6.25;4.07;;;;;;;;;;10545893;28;20693;-78
2023/06/12 09:36:12;;;;;;;7.90;4.60;;;;;;;;;;10534764;28;20043;-76
2023/06/12 09:41:15;;;;;;;8.82;4.10;;;;;;;;;;10515183;28;20040;-77
2023/06/12 09:46:24;;;;;;;6.00;4.20;;;;;;;;;;10540152;28;20044;-78
2023/06/12 09:51:30;;;;;;;6.55;4.68;;;;;;;;;;10538650;28;20602;-76
2023/06/12 09:56:33;;;;;;;7.65;4.15;;;;;;;;;;10540269;28;20032;-76
2023/06/12 10:01:39;;;;;;;4.63;4.22;;;;;;;;;;10537608;28;20560;-76
2023/06/12 10:06:43;;;;;;;4.68;4.18;;;;;;;;;;10538850;28;20280;-76
2023/06/12 10:11:46;;;;;;;4.53;4.10;;;;;;;;;;10539082;28;20066;-78
2023/06/12 10:16:51;;;;;;;7.32;4.28;;;;;;;;;;10536976;28;20065;-76
2023/06/12 10:21:54;;;;;;;4.20;3.80;;;;;;;;;;10538760;28;20112;-76
2023/06/12 10:26:57;;;;;;;6.13;3.80;;;;;;;;;;10538032;28;20085;-76
2023/06/12 10:32:05;;;;;;;6.00;3.88;;;;;;;;;;10539936;28;20044;-77
2023/06/12 10:37:24;;;;;;;5.75;3.78;;;;;;;;;;10536775;28;20048;-77
2023/06/12 10:42:38;;;;;;;4.13;3.72;;;;;;;;;;10547947;28;20067;-77
2023/06/12 10:47:42;;;;;;;6.38;4.50;;;;;;;;;;10555027;28;20067;-77
2023/06/12 10:52:53;;;;;;;4.20;3.80;;;;;;;;;;10558067;28;20199;-76
2023/06/12 10:57:56;;;;;;;7.05;4.53;;;;;;;;;;10561098;28;20129;-76
2023/06/12 11:03:01;;;;;;;5.40;4.28;;;;;;;;;;10555185;28;20074;-76
2023/06/12 11:08:05;;;;;;;4.38;3.97;;;;;;;;;;10552894;28;20151;-76
2023/06/12 11:13:07;;;;;;;8.32;4.97;;;;;;;;;;10558979;28;20036;-75
2023/06/12 11:18:12;;;;;;;5.10;4.00;;;;;;;;;;10543897;28;20124;-76
2023/06/12 11:23:15;;;;;;;5.82;3.90;;;;;;;;;;10546002;28;20060;-77
2023/06/12 11:28:19;;;;;;;6.15;4.35;;;;;;;;;;10540326;28;20123;-76
2023/06/12 11:33:23;;;;;;;5.05;3.80;;;;;;;;;;10549947;28;20423;-77
2023/06/12 11:38:26;;;;;;;9.50;5.00;;;;;;;;;;10547867;28;20063;-77
2023/06/12 11:43:32;;;;;;;6.63;4.22;;;;;;;;;;10548390;28;20039;-76
2023/06/12 11:48:36;;;;;;;5.88;4.20;;;;;;;;;;10551583;28;20078;-76
2023/06/12 11:53:42;;;;;;;4.82;4.10;;;;;;;;;;10545595;28;20036;-75
2023/06/12 11:58:45;;;;;;;5.43;3.92;;;;;;;;;;10545995;28;20036;-76
2023/06/12 12:03:50;;;;;;;7.05;3.97;;;;;;;;;;10544831;28;20035;-76
2023/06/12 12:08:58;;;;;;;4.53;3.60;;;;;;;;;;10540011;28;20135;-76
2023/06/12 12:14:02;;;;;;;6.97;3.67;;;;;;;;;;10543731;28;20056;-77
2023/06/12 12:19:17;;;;;;;4.00;3.60;;;;;;;;;;10544034;28;20051;-76
2023/06/12 12:24:19;;;;;;;7.32;4.07;;;;;;;;;;10542742;28;20036;-76
2023/06/12 12:29:23;;;;;;;4.90;3.22;;;;;;;;;;10544621;28;20123;-75
2023/06/12 12:34:27;;;;;;;5.22;3.60;;;;;;;;;;10541242;28;20084;-75
2023/06/12 12:39:30;;;;;;;4.65;3.40;;;;;;;;;;10541140;28;21738;-76
2023/06/12 12:44:32;;;;;;;5.05;3.83;;;;;;;;;;10544881;28;20047;-75
2023/06/12 12:49:37;;;;;;;6.50;3.38;;;;;;;;;;10540960;28;20109;-75
2023/06/12 12:54:51;;;;;;;5.18;3.38;;;;;;;;;;10541666;28;20185;-75
2023/06/12 12:59:54;;;;;;;10.23;3.47;;;;;;;;;;10543980;28;20048;-75
2023/06/12 13:04:59;;;;;;;6.05;3.42;;;;;;;;;;10543866;28;20048;-75
2023/06/12 13:10:02;;;;;;;4.55;3.42;;;;;;;;;;10540546;28;20155;-75
2023/06/12 13:15:05;;;;;;;5.70;3.33;;;;;;;;;;10541899;28;20056;-75
2023/06/12 13:20:11;;;;;;;6.28;2.97;;;;;;;;;;10540462;28;20035;-76
2023/06/12 13:25:14;;;;;;;2.97;2.30;;;;;;;;;;10539142;28;20071;-76
2023/06/12 13:30:17;;;;;;;5.13;3.20;;;;;;;;;;10539160;28;20058;-76
2023/06/12 13:35:21;;;;;;;6.53;2.78;;;;;;;;;;10544604;28;20116;-76
2023/06/12 13:40:24;;;;;;;5.40;3.20;;;;;;;;;;10542294;28;20230;-76
2023/06/12 13:45:27;;;;;;;5.97;3.08;;;;;;;;;;10540329;28;20512;-76
2023/06/12 13:50:31;;;;;;;5.03;2.97;;;;;;;;;;10551199;28;20048;-76
2023/06/12 13:55:34;;;;;;;4.65;2.58;;;;;;;;;;10549969;28;20071;-74
2023/06/12 14:00:37;;;;;;;4.80;3.05;;;;;;;;;;10553204;28;20091;-76
2023/06/12 14:05:41;;;;;;;4.68;2.40;;;;;;;;;;10549359;28;20446;-77
2023/06/12 14:10:44;;;;;;;4.13;2.65;;;;;;;;;;10545467;28;20123;-76
2023/06/12 14:15:46;;;;;;;4.40;2.58;;;;;;;;;;10553222;28;20051;-76
2023/06/12 14:20:51;;;;;;;5.60;2.60;;;;;;;;;;10557309;28;20046;-76
2023/06/12 14:25:53;;;;;;;7.47;3.10;;;;;;;;;;10554482;28;20112;-76
2023/06/12 14:30:56;;;;;;;5.03;3.20;;;;;;;;;;10558985;28;20036;-75
2023/06/12 14:36:01;;;;;;;4.05;2.58;;;;;;;;;;10556187;28;20048;-76
2023/06/12 14:41:04;;;;;;;5.38;2.83;;;;;;;;;;10555453;28;20039;-75
2023/06/12 14:46:07;;;;;;;4.25;2.70;;;;;;;;;;10556174;28;20048;-75
2023/06/12 14:51:11;;;;;;;5.50;2.60;;;;;;;;;;10555957;28;20072;-75
2023/06/12 14:56:15;;;;;;;3.58;2.10;;;;;;;;;;10556321;28;20070;-75
2023/06/12 15:01:17;;;;;;;8.13;2.33;;;;;;;;;;10555344;28;20048;-74
2023/06/12 15:06:22;;;;;;;3.63;2.45;;;;;;;;;;10561773;28;20051;-75
2023/06/12 15:11:25;;;;;;;4.07;2.65;;;;;;;;;;10560337;28;20063;-75
2023/06/12 15:16:27;;;;;;;6.43;2.70;;;;;;;;;;10541851;28;20044;-74
2023/06/12 15:21:32;;;;;;;8.63;3.03;;;;;;;;;;10571061;28;20063;-76
2023/06/12 15:26:34;;;;;;;6.32;2.78;;;;;;;;;;10564234;28;20095;-75
2023/06/12 15:31:37;;;;;;;4.38;2.53;;;;;;;;;;10560434;28;20044;-77
2023/06/12 15:36:41;;;;;;;6.05;3.10;;;;;;;;;;10556965;28;20103;-75
2023/06/12 15:41:45;;;;;;;4.40;1.95;;;;;;;;;;10539877;28;20039;-74
2023/06/12 15:46:48;;;;;;;4.78;2.58;;;;;;;;;;10557089;28;20048;-75
2023/06/12 15:51:52;;;;;;;3.05;2.42;;;;;;;;;;10548418;28;20044;-76
2023/06/12 15:56:55;;;;;;;4.63;2.50;;;;;;;;;;10545207;28;20076;-75
2023/06/12 16:01:59;;;;;;;2.80;1.95;;;;;;;;;;10544118;28;20067;-76
2023/06/12 16:07:03;;;;;;;4.15;2.40;;;;;;;;;;10528188;28;20170;-76
2023/06/12 16:12:06;;;;;;;4.20;2.63;;;;;;;;;;10542834;28;20055;-76
2023/06/12 16:17:10;;;;;;;7.97;2.10;;;;;;;;;;10537440;28;20083;-76
2023/06/12 16:22:15;;;;;;;3.72;2.20;;;;;;;;;;10535290;28;20520;-75
2023/06/12 16:27:18;;;;;;;3.95;2.42;;;;;;;;;;10535223;28;21018;-75
2023/06/12 16:32:21;;;;;;;4.55;2.50;;;;;;;;;;10534112;28;20050;-75
2023/06/12 16:37:25;;;;;;;;;;;;;;;;;;10539277;28;20039;-74
2023/06/12 16:42:29;;;;;;;5.38;2.70;;;;;;;;;;10538756;28;20094;-75
2023/06/12 16:47:31;;;;;;;3.47;2.35;;;;;;;;;;10541998;28;20055;-76
2023/06/12 16:52:34;;;;;;;6.05;2.70;;;;;;;;;;10542147;28;20063;-75
2023/06/12 16:57:39;;;;;;;5.18;2.33;;;;;;;;;;10538007;28;20044;-74
2023/06/12 17:02:42;;;;;;;3.88;2.50;;;;;;;;;;10513364;28;20073;-76
2023/06/12 17:07:45;;;;;;;6.97;2.72;;;;;;;;;;10522111;28;20048;-74
2023/06/12 17:12:49;;;;;;;4.45;2.65;;;;;;;;;;10537537;28;20068;-75
2023/06/12 17:17:52;;;;;;;3.40;1.92;;;;;;;;;;10543188;28;20059;-76
2023/06/12 17:22:55;;;;;;;;;;;;;;;;;;10552262;28;20071;-75
2023/06/12 17:28:01;;;;;;;4.93;2.42;;;;;;;;;;10556022;28;19927;-75
2023/06/12 17:33:03;;;;;;;7.55;2.90;;;;;;;;;;10551733;28;20044;-77
2023/06/12 17:38:07;;;;;;;;;;;;;;;;;;10551283;28;20556;-75
2023/06/12 17:43:11;;;;;;;3.25;2.17;;;;;;;;;;10551071;28;19928;-75
2023/06/12 17:48:14;;;;;;;5.07;2.60;;;;;;;;;;10548932;28;20175;-75
2023/06/12 17:53:17;;;;;;;4.53;2.30;;;;;;;;;;10543694;28;20124;-76
2023/06/12 17:58:22;;;;;;;6.07;2.70;;;;;;;;;;10542720;28;20095;-76
2023/06/12 18:03:26;;;;;;;5.57;2.83;;;;;;;;;;10545539;28;20063;-76
2023/06/12 18:08:28;;;;;;;5.43;2.50;;;;;;;;;;10548054;28;20102;-76
2023/06/12 18:13:33;;;;;;;5.63;3.15;;;;;;;;;;10541183;28;20135;-75
2023/06/12 18:18:35;;;;;;;4.80;2.50;;;;;;;;;;10545594;28;20409;-76
2023/06/12 18:23:39;;;;;;;11.82;2.88;;;;;;;;;;10546370;28;20420;-75
2023/06/12 18:28:44;;;;;;;5.05;2.80;;;;;;;;;;10542731;28;20036;-75
2023/06/12 18:33:47;;;;;;;5.30;2.60;;;;;;;;;;10548066;28;20048;-76
2023/06/12 18:38:50;;;;;;;5.25;2.80;;;;;;;;;;10544169;28;20068;-76
2023/06/12 18:43:53;;;;;;;7.22;2.80;;;;;;;;;;10544527;28;20091;-77
2023/06/12 18:48:56;;;;;;;6.13;2.70;;;;;;;;;;10544443;28;20064;-77
2023/06/12 18:54:00;;;;;;;4.47;3.10;;;;;;;;;;10545276;28;20040;-75
2023/06/12 18:59:05;;;;;;;5.15;2.60;;;;;;;;;;10548660;28;20127;-77
2023/06/12 19:04:08;;;;;;;4.80;2.50;;;;;;;;;;10537300;28;20040;-75
2023/06/12 19:09:11;;;;;;;5.97;2.88;;;;;;;;;;10534749;28;20043;-75
2023/06/12 19:14:15;;;;;;;5.70;2.58;;;;;;;;;;10558438;28;20063;-75
2023/06/12 19:19:18;;;;;;;5.53;2.90;;;;;;;;;;10550640;28;20055;-75
2023/06/12 19:24:21;;;;;;;7.93;2.83;;;;;;;;;;10552670;28;20040;-75
2023/06/12 19:29:25;;;;;;;5.90;2.70;;;;;;;;;;10534850;28;20315;-75
2023/06/12 19:34:28;;;;;;;4.53;2.70;;;;;;;;;;10550938;28;20067;-77
2023/06/12 19:39:31;;;;;;;5.05;2.50;;;;;;;;;;10547998;28;20096;-77
2023/06/12 19:44:35;;;;;;;6.30;2.90;;;;;;;;;;10556652;28;20068;-76
2023/06/12 19:49:38;;;;;;;8.80;3.20;;;;;;;;;;10554684;28;20100;-76
2023/06/12 19:54:41;;;;;;;7.60;2.80;;;;;;;;;;10535679;28;20072;-75
2023/06/12 19:59:44;;;;;;;;;;;;;;;;;;10553742;28;20047;-74
2023/06/12 20:04:48;;;;;;;6.00;2.88;;;;;;;;;;10557673;28;20232;-74
2023/06/12 20:09:51;;;;;;;4.75;2.60;;;;;;;;;;10553895;28;20099;-76
2023/06/12 20:14:54;;;;;;;4.73;2.50;;;;;;;;;;10553604;28;20044;-76
2023/06/12 20:19:58;;;;;;;6.43;2.90;;;;;;;;;;10555648;28;20451;-76
2023/06/12 20:25:01;;;;;;;8.65;2.60;;;;;;;;;;10552987;28;20107;-76
2023/06/12 20:30:04;;;;;;;5.13;2.53;;;;;;;;;;10557701;28;20156;-75
2023/06/12 20:35:09;;;;;;;4.93;2.60;;;;;;;;;;10557005;28;20048;-76
2023/06/12 20:40:13;;;;;;;4.78;2.75;;;;;;;;;;10549774;28;20134;-77
2023/06/12 20:45:16;;;;;;;4.75;2.58;;;;;;;;;;10550334;28;20055;-75
2023/06/12 20:50:20;;;;;;;6.13;2.80;;;;;;;;;;10531624;28;20047;-76
2023/06/12 20:55:22;;;;;;;4.78;2.63;;;;;;;;;;10550270;28;20161;-76
2023/06/12 21:00:25;;;;;;;5.67;2.67;;;;;;;;;;10551113;28;20360;-77
2023/06/12 21:05:29;;;;;;;6.07;2.57;;;;;;;;;;10556027;28;20051;-76
2023/06/12 21:10:32;;;;;;;6.50;2.75;;;;;;;;;;10556665;28;20119;-76
2023/06/12 21:15:35;;;;;;;6.33;2.47;;;;;;;;;;10556479;28;20071;-76
2023/06/12 21:20:39;;;;;;;6.40;2.50;;;;;;;;;;10555122;28;20050;-76
2023/06/12 21:25:41;;;;;;;5.13;2.35;;;;;;;;;;10555638;28;20048;-74
2023/06/12 21:30:44;;;;;;;5.80;2.35;;;;;;;;;;10550882;28;20147;-76
2023/06/12 21:35:48;;;;;;;6.00;2.33;;;;;;;;;;10547913;28;20099;-75
2023/06/12 21:40:54;;;;;;;5.47;2.67;;;;;;;;;;10549969;28;20044;-77
2023/06/12 21:45:57;;;;;;;4.18;2.50;;;;;;;;;;10550988;28;20048;-75
2023/06/12 21:51:01;;;;;;;4.93;2.70;;;;;;;;;;10553202;28;20036;-76
2023/06/12 21:56:04;;;;;;;4.65;2.30;;;;;;;;;;10553375;28;20044;-75
2023/06/12 22:01:07;;;;;;;6.95;2.42;;;;;;;;;;10551019;28;20100;-76
2023/06/12 22:06:11;;;;;;;6.60;3.17;;;;;;;;;;10543870;28;20131;-75
2023/06/12 22:11:14;;;;;;;5.65;2.60;;;;;;;;;;10547105;28;20059;-75
2023/06/12 22:16:17;;;;;;;6.20;2.47;;;;;;;;;;10531600;28;20044;-75
2023/06/12 22:21:21;;;;;;;6.53;2.42;;;;;;;;;;10546575;28;20119;-75
2023/06/12 22:26:24;;;;;;;3.95;2.38;;;;;;;;;;10531673;28;20040;-76
2023/06/12 22:31:27;;;;;;;6.03;2.40;;;;;;;;;;10546071;28;20102;-74
2023/06/12 22:36:31;;;;;;;3.97;2.17;;;;;;;;;;10559359;28;20036;-75
2023/06/12 22:41:34;;;;;;;3.42;2.00;;;;;;;;;;10553731;28;20044;-74
2023/06/12 22:46:37;;;;;;;4.25;1.98;;;;;;;;;;10567301;28;20058;-74
2023/06/12 22:51:42;;;;;;;4.15;2.30;;;;;;;;;;10560669;28;20437;-75
2023/06/12 22:56:45;;;;;;;4.25;2.28;;;;;;;;;;10560511;28;20056;-76
2023/06/12 23:01:48;;;;;;;2.53;1.53;;;;;;;;;;10560024;28;20072;-75
2023/06/12 23:06:53;;;;;;;3.57;2.20;;;;;;;;;;10559510;28;20052;-75
2023/06/12 23:11:55;;;;;;;5.85;2.60;;;;;;;;;;10554293;28;20071;-75
2023/06/12 23:16:58;;;;;;;4.80;2.67;;;;;;;;;;10559812;28;20142;-75
2023/06/12 23:22:05;;;;;;;5.78;1.90;;;;;;;;;;10560882;28;20036;-74
2023/06/12 23:27:11;;;;;;;4.22;2.13;;;;;;;;;;10556338;28;20100;-75
2023/06/12 23:32:14;;;;;;;5.13;2.35;;;;;;;;;;10553719;28;20040;-76
2023/06/12 23:37:18;;;;;;;3.25;2.05;;;;;;;;;;10559460;28;20083;-74
2023/06/12 23:42:21;;;;;;;3.72;2.15;;;;;;;;;;10554619;28;20231;-75
2023/06/12 23:47:24;;;;;;;6.68;2.40;;;;;;;;;;10554860;28;20544;-75
2023/06/12 23:52:28;;;;;;;3.67;2.10;;;;;;;;;;10568373;28;20036;-75
2023/06/12 23:57:31;;;;;;;6.05;2.60;;;;;;;;;;10536795;28;20036;-75
